Time;durP1;ratioP1;P1;durP2;ratioP2;P2;SDS_P1;SDS_P2;PMS_P1;PMS_P2;Temp;Humidity;BMP_temperature;BMP_pressure;BME280_temperature;BME280_humidity;BME280_pressure;Samples;Min_cycle;Max_cycle;Signal;HPM_P1;HPM_P2
2021/07/29 00:00:54;;;;;;;4.30;3.00;;;;;;;16.98;100.00;100350.97;4983282;28;20221;-74
2021/07/29 00:03:20;;;;;;;3.93;3.20;;;;;;;16.94;100.00;100345.03;4975999;28;20221;-73
2021/07/29 00:05:48;;;;;;;4.20;3.37;;;;;;;16.92;100.00;100352.19;4983764;28;20236;-74
2021/07/29 00:08:14;;;;;;;3.40;3.03;;;;;;;16.92;100.00;100352.19;4974954;28;20836;-75
2021/07/29 00:10:41;;;;;;;3.17;2.87;;;;;;;16.94;100.00;100349.44;4983346;28;20224;-74
2021/07/29 00:13:07;;;;;;;4.07;3.50;;;;;;;16.95;100.00;100349.34;4977418;28;20209;-75
2021/07/29 00:15:33;;;;;;;4.00;3.30;;;;;;;16.98;100.00;100348.34;4983017;28;20232;-76
2021/07/29 00:20:45;;;;;;;6.87;3.47;;;;;;;16.99;100.00;100344.75;4979372;28;20262;-76
2021/07/29 00:23:11;;;;;;;3.63;3.23;;;;;;;16.97;100.00;100347.50;4980550;28;20197;-75
2021/07/29 00:25:39;;;;;;;3.80;3.40;;;;;;;16.95;100.00;100348.53;4980213;28;20771;-76
2021/07/29 00:28:05;;;;;;;5.80;3.63;;;;;;;16.95;100.00;100346.72;4983026;28;20236;-76
2021/07/29 00:30:31;;;;;;;3.47;3.10;;;;;;;16.87;100.00;100346.34;4977485;28;20229;-74
2021/07/29 00:33:02;;;;;;;3.87;3.47;;;;;;;16.87;100.00;100341.06;4981336;28;20197;-77
2021/07/29 00:35:29;;;;;;;5.50;3.77;;;;;;;16.81;100.00;100342.22;4975441;28;20679;-75
2021/07/29 00:38:00;;;;;;;5.30;3.73;;;;;;;16.75;100.00;100336.47;4979426;28;20211;-76
2021/07/29 00:40:28;;;;;;;4.60;3.73;;;;;;;16.74;100.00;100340.84;4976114;28;20504;-75
2021/07/29 00:42:55;;;;;;;4.13;3.30;;;;;;;16.71;100.00;100345.44;4983019;28;20201;-75
2021/07/29 00:45:21;;;;;;;4.87;3.50;;;;;;;16.69;100.00;100339.44;4977446;28;20232;-76
2021/07/29 00:47:47;;;;;;;4.80;3.87;;;;;;;16.64;100.00;100342.34;4980014;28;20599;-76
2021/07/29 00:50:16;;;;;;;4.60;4.10;;;;;;;16.59;100.00;100342.59;4979052;28;20245;-76
2021/07/29 00:52:45;;;;;;;4.10;3.53;;;;;;;16.57;100.00;100333.06;4981016;28;20215;-75
2021/07/29 00:55:11;;;;;;;5.63;4.27;;;;;;;16.56;100.00;100340.13;4973555;28;21021;-76
2021/07/29 00:57:38;;;;;;;5.03;3.90;;;;;;;16.53;100.00;100336.81;4975902;28;20206;-74
2021/07/29 01:00:07;;;;;;;4.67;4.03;;;;;;;16.46;100.00;100334.53;4984641;28;20196;-77
2021/07/29 01:02:33;;;;;;;5.77;3.90;;;;;;;16.38;100.00;100339.34;4976230;28;20212;-75
2021/07/29 01:05:00;;;;;;;4.97;3.70;;;;;;;16.30;100.00;100345.97;4981773;28;20236;-76
2021/07/29 01:07:27;;;;;;;6.33;3.77;;;;;;;16.29;100.00;100347.75;4975323;28;20209;-74
2021/07/29 01:09:54;;;;;;;5.57;3.83;;;;;;;16.26;100.00;100342.66;4979466;28;20228;-74
2021/07/29 01:12:20;;;;;;;7.00;3.80;;;;;;;16.20;100.00;100343.84;4978299;28;20206;-73
2021/07/29 01:14:46;;;;;;;7.47;4.13;;;;;;;16.17;100.00;100340.53;4981920;28;20584;-73
2021/07/29 01:17:13;;;;;;;5.40;3.77;;;;;;;16.16;100.00;100338.81;4977364;28;20212;-75
2021/07/29 01:19:39;;;;;;;3.83;3.37;;;;;;;16.15;100.00;100329.25;4982097;28;20596;-76
2021/07/29 01:22:07;;;;;;;4.20;3.60;;;;;;;16.08;100.00;100337.44;4980899;28;20200;-75
2021/07/29 01:24:33;;;;;;;5.50;3.40;;;;;;;16.13;100.00;100338.97;4984785;28;20292;-75
2021/07/29 01:26:59;;;;;;;3.93;3.50;;;;;;;16.07;100.00;100338.38;4981670;28;20221;-76
2021/07/29 01:29:26;;;;;;;5.47;4.20;;;;;;;16.11;100.00;100331.16;4983740;28;20304;-76
2021/07/29 01:31:52;;;;;;;4.70;4.20;;;;;;;16.06;100.00;100334.06;4985718;28;20201;-75
2021/07/29 01:34:19;;;;;;;6.40;4.00;;;;;;;16.05;100.00;100329.72;4980423;28;20609;-76
2021/07/29 01:36:46;;;;;;;4.67;3.30;;;;;;;16.06;100.00;100331.44;4983799;28;20225;-75
2021/07/29 01:39:13;;;;;;;6.67;4.00;;;;;;;16.04;100.00;100335.06;4981085;28;20280;-76
2021/07/29 01:41:40;;;;;;;4.37;3.60;;;;;;;16.04;100.00;100324.53;4985087;28;20212;-75
2021/07/29 01:44:06;;;;;;;4.20;3.80;;;;;;;16.03;100.00;100328.97;4977150;28;20214;-77
2021/07/29 01:46:32;;;;;;;5.47;3.80;;;;;;;16.06;100.00;100325.34;4983631;28;20231;-77
2021/07/29 01:48:59;;;;;;;6.83;4.10;;;;;;;16.07;100.00;100324.38;4978579;28;20699;-75
2021/07/29 01:51:25;;;;;;;4.33;3.80;;;;;;;16.03;100.00;100326.31;4983680;28;20236;-77
2021/07/29 01:53:51;;;;;;;4.70;3.77;;;;;;;16.03;100.00;100328.13;4979732;28;20212;-77
2021/07/29 01:56:20;;;;;;;6.00;3.90;;;;;;;15.99;100.00;100331.81;4984259;28;20233;-77
2021/07/29 01:58:47;;;;;;;4.93;3.87;;;;;;;15.89;100.00;100336.75;4979013;28;20364;-75
2021/07/29 02:01:20;;;;;;;4.37;3.80;;;;;;;15.88;100.00;100335.03;4983032;28;20212;-77
2021/07/29 02:03:46;;;;;;;5.70;3.80;;;;;;;15.84;100.00;100336.97;4982544;28;20647;-75
2021/07/29 02:06:12;;;;;;;6.57;4.17;;;;;;;15.80;100.00;100337.22;4981116;28;20234;-75
2021/07/29 02:08:39;;;;;;;6.70;4.10;;;;;;;15.81;100.00;100341.53;4983723;28;20212;-75
2021/07/29 02:11:05;;;;;;;4.50;4.10;;;;;;;15.78;100.00;100333.84;4979174;28;20598;-74
2021/07/29 02:13:33;;;;;;;5.10;4.20;;;;;;;15.75;100.00;100334.00;4984969;28;20220;-75
2021/07/29 02:15:59;;;;;;;4.60;3.73;;;;;;;15.81;100.00;100331.91;4979423;28;20234;-74
2021/07/29 02:18:26;;;;;;;4.87;3.60;;;;;;;15.76;100.00;100327.78;4984920;28;20201;-74
2021/07/29 02:20:52;;;;;;;5.23;4.40;;;;;;;15.71;100.00;100330.63;4978810;28;20196;-75
2021/07/29 02:23:18;;;;;;;5.03;4.23;;;;;;;15.69;100.00;100330.72;4983545;28;20301;-76
2021/07/29 02:25:45;;;;;;;6.27;4.40;;;;;;;15.64;100.00;100330.09;4980080;28;21046;-77
2021/07/29 02:28:11;;;;;;;5.87;4.40;;;;;;;15.66;100.00;100330.88;4986281;28;20206;-75
2021/07/29 02:30:39;;;;;;;5.70;4.50;;;;;;;15.57;100.00;100330.50;4979910;28;20221;-75
2021/07/29 02:33:05;;;;;;;4.93;4.13;;;;;;;15.56;100.00;100341.94;4982073;28;20545;-78
2021/07/29 02:35:32;;;;;;;7.23;4.50;;;;;;;15.53;100.00;100346.44;4979562;28;20231;-75
2021/07/29 02:37:58;;;;;;;5.47;4.50;;;;;;;15.55;100.00;100340.22;4986010;28;20209;-74
2021/07/29 02:40:24;;;;;;;4.60;4.10;;;;;;;15.59;100.00;100344.41;4984108;28;20489;-77
2021/07/29 02:42:51;;;;;;;7.30;4.40;;;;;;;15.59;100.00;100347.88;4980087;28;20261;-76
2021/07/29 02:45:17;;;;;;;7.53;4.77;;;;;;;15.55;100.00;100351.59;4984769;28;20235;-76
2021/07/29 02:47:45;;;;;;;5.53;4.40;;;;;;;15.49;100.00;100350.13;4978119;28;20212;-73
2021/07/29 02:50:12;;;;;;;4.93;4.00;;;;;;;15.52;100.00;100355.22;4983174;28;20230;-74
2021/07/29 02:52:38;;;;;;;5.17;4.50;;;;;;;15.50;100.00;100354.47;4976708;28;20218;-74
2021/07/29 02:55:05;;;;;;;5.47;4.40;;;;;;;15.53;100.00;100350.81;4980198;28;20242;-76
2021/07/29 02:57:31;;;;;;;5.33;4.30;;;;;;;15.42;100.00;100351.34;4978644;28;20422;-76
2021/07/29 02:59:58;;;;;;;4.90;4.33;;;;;;;15.42;100.00;100356.63;4984500;28;20331;-75
2021/07/29 03:02:24;;;;;;;5.50;4.23;;;;;;;15.40;100.00;100355.00;4980038;28;20406;-76
2021/07/29 03:04:52;;;;;;;5.93;4.50;;;;;;;15.38;100.00;100362.13;4980595;28;20212;-75
2021/07/29 03:07:18;;;;;;;5.70;4.50;;;;;;;15.32;100.00;100364.13;4980486;28;20621;-74
2021/07/29 03:09:45;;;;;;;5.53;4.17;;;;;;;15.33;100.00;100367.59;4985948;28;20204;-77
2021/07/29 03:12:11;;;;;;;5.73;4.53;;;;;;;15.33;100.00;100354.47;4981317;28;20311;-77
2021/07/29 03:14:37;;;;;;;4.17;3.47;;;;;;;15.32;100.00;100358.03;4980144;28;20212;-77
2021/07/29 03:17:04;;;;;;;6.43;4.53;;;;;;;15.32;100.00;100358.88;4977696;28;20296;-77
2021/07/29 03:19:30;;;;;;;5.93;4.70;;;;;;;15.21;100.00;100358.53;4979337;28;20365;-74
2021/07/29 03:21:58;;;;;;;6.07;4.70;;;;;;;15.28;100.00;100359.09;4983603;28;20294;-73
2021/07/29 03:24:24;;;;;;;5.50;4.03;;;;;;;15.18;100.00;100369.22;4977418;28;20215;-75
2021/07/29 03:26:51;;;;;;;5.60;4.20;;;;;;;15.19;100.00;100368.28;4984002;28;20235;-76
2021/07/29 03:29:17;;;;;;;8.93;4.87;;;;;;;15.21;100.00;100358.53;4975590;28;20285;-74
2021/07/29 03:31:43;;;;;;;6.17;4.70;;;;;;;15.25;100.00;100359.22;4981035;28;20782;-77
2021/07/29 03:34:10;;;;;;;8.23;4.83;;;;;;;15.28;100.00;100367.81;4981576;28;20212;-77
2021/07/29 03:36:36;;;;;;;7.57;4.80;;;;;;;15.23;100.00;100367.22;4981925;28;20952;-77
2021/07/29 03:39:06;;;;;;;6.37;4.83;;;;;;;15.20;100.00;100371.78;4981525;28;20678;-75
2021/07/29 03:41:33;;;;;;;5.80;4.77;;;;;;;15.27;100.00;100374.00;4982079;28;20651;-73
2021/07/29 03:43:59;;;;;;;7.13;5.00;;;;;;;15.26;100.00;100368.81;4976398;28;20255;-76
2021/07/29 03:46:25;;;;;;;7.10;4.60;;;;;;;15.29;100.00;100364.28;4978618;28;20231;-76
2021/07/29 03:48:51;;;;;;;6.03;4.50;;;;;;;15.31;100.00;100359.78;4983492;28;20207;-76
2021/07/29 03:51:18;;;;;;;5.87;4.60;;;;;;;15.29;100.00;100371.31;4981035;28;20626;-75
2021/07/29 03:53:44;;;;;;;5.37;4.67;;;;;;;15.34;100.00;100369.31;4980340;28;20219;-77
2021/07/29 03:56:12;;;;;;;7.33;5.67;;;;;;;15.34;100.00;100372.78;4978845;28;20239;-75
2021/07/29 03:58:38;;;;;;;7.47;5.30;;;;;;;15.36;100.00;100367.44;4982997;28;20200;-76
2021/07/29 04:01:07;;;;;;;6.63;4.80;;;;;;;15.37;100.00;100368.28;4977507;28;20244;-76
2021/07/29 04:03:33;;;;;;;7.17;4.87;;;;;;;15.39;100.00;100372.56;4983694;28;20221;-75
2021/07/29 04:05:59;;;;;;;7.63;5.30;;;;;;;15.38;100.00;100376.09;4978525;28;20239;-76
2021/07/29 04:08:26;;;;;;;8.00;5.90;;;;;;;15.42;100.00;100372.38;4983413;28;20235;-77
2021/07/29 04:10:53;;;;;;;7.83;6.03;;;;;;;15.46;100.00;100378.31;4978315;28;20322;-74
2021/07/29 04:13:21;;;;;;;7.33;5.17;;;;;;;15.55;100.00;100372.63;4980688;28;20198;-76
2021/07/29 04:15:47;;;;;;;6.60;5.20;;;;;;;15.62;100.00;100376.63;4981225;28;20605;-76
2021/07/29 04:18:14;;;;;;;7.57;5.67;;;;;;;15.67;100.00;100371.13;4974215;28;20270;-75
2021/07/29 04:20:42;;;;;;;7.87;5.50;;;;;;;15.68;100.00;100370.22;4980329;28;20753;-75
2021/07/29 04:23:08;;;;;;;8.70;6.10;;;;;;;15.75;100.00;100373.41;4980401;28;20422;-77
2021/07/29 04:25:35;;;;;;;8.63;6.00;;;;;;;15.82;100.00;100374.78;4985186;28;20235;-73
2021/07/29 04:28:01;;;;;;;11.03;5.93;;;;;;;15.93;100.00;100380.31;4977149;28;20205;-77
2021/07/29 04:30:29;;;;;;;8.30;5.83;;;;;;;16.00;100.00;100380.88;4985591;28;20216;-77
2021/07/29 04:32:55;;;;;;;8.93;5.40;;;;;;;16.06;100.00;100383.19;4977844;28;20554;-74
2021/07/29 04:35:21;;;;;;;6.87;5.40;;;;;;;16.15;100.00;100380.06;4984087;28;20619;-77
2021/07/29 04:37:48;;;;;;;6.40;5.30;;;;;;;16.22;100.00;100384.06;4974741;28;20216;-76
2021/07/29 04:40:14;;;;;;;7.57;5.80;;;;;;;16.30;100.00;100373.09;4989770;28;20746;-77
2021/07/29 04:42:40;;;;;;;9.33;5.40;;;;;;;16.35;100.00;100376.34;4974712;28;20205;-77
2021/07/29 04:45:08;;;;;;;8.93;5.20;;;;;;;16.45;100.00;100379.34;4984810;28;20603;-77
2021/07/29 04:47:36;;;;;;;5.40;4.80;;;;;;;16.55;100.00;100380.53;4978785;28;20213;-77
2021/07/29 04:50:02;;;;;;;6.53;5.07;;;;;;;16.60;100.00;100381.13;4976602;28;20209;-76
2021/07/29 04:52:29;;;;;;;6.90;5.67;;;;;;;16.69;100.00;100385.00;4978966;28;20585;-76
2021/07/29 04:54:55;;;;;;;6.20;4.50;;;;;;;16.78;100.00;100389.78;4978918;28;20233;-76
2021/07/29 04:57:21;;;;;;;5.73;5.03;;;;;;;16.83;100.00;100389.50;4981425;28;20672;-77
2021/07/29 04:59:48;;;;;;;5.77;4.73;;;;;;;16.95;100.00;100395.91;4977149;28;20213;-77
2021/07/29 05:02:17;;;;;;;6.40;4.87;;;;;;;17.03;100.00;100391.91;4985013;28;20200;-74
2021/07/29 05:04:45;;;;;;;6.17;4.67;;;;;;;17.16;100.00;100393.84;4977069;28;20629;-77
2021/07/29 05:07:11;;;;;;;5.80;4.43;;;;;;;17.33;100.00;100398.16;4983806;28;20292;-76
2021/07/29 05:09:38;;;;;;;5.80;4.40;;;;;;;17.51;100.00;100394.44;4976122;28;20393;-74
2021/07/29 05:12:05;;;;;;;5.87;4.47;;;;;;;17.67;100.00;100397.00;4984538;28;20511;-77
2021/07/29 05:14:32;;;;;;;7.03;4.80;;;;;;;17.91;100.00;100399.16;4975533;28;20219;-76
2021/07/29 05:16:59;;;;;;;5.40;4.60;;;;;;;18.10;99.52;100393.59;4981397;28;20217;-75
2021/07/29 05:19:26;;;;;;;5.37;4.50;;;;;;;18.27;97.96;100397.84;4978084;28;20209;-74
2021/07/29 05:21:54;;;;;;;4.90;4.40;;;;;;;18.53;98.71;100397.06;4977780;28;20201;-76
2021/07/29 05:24:20;;;;;;;5.00;4.23;;;;;;;18.66;96.53;100399.81;4975051;28;20216;-76
2021/07/29 05:26:46;;;;;;;6.63;3.93;;;;;;;18.78;94.86;100402.59;4982422;28;20222;-76
2021/07/29 05:29:13;;;;;;;5.03;4.00;;;;;;;18.96;95.70;100395.31;4980987;28;20483;-76
2021/07/29 05:31:41;;;;;;;4.90;3.60;;;;;;;19.13;94.42;100392.41;4978271;28;20213;-76
2021/07/29 05:34:08;;;;;;;5.03;3.90;;;;;;;19.17;93.61;100390.41;4981905;28;20638;-75
2021/07/29 05:36:34;;;;;;;4.20;3.80;;;;;;;19.09;92.48;100397.03;4975168;28;20257;-76
2021/07/29 05:39:02;;;;;;;4.40;3.57;;;;;;;19.00;91.23;100394.19;4977897;28;20206;-76
2021/07/29 05:41:28;;;;;;;4.30;3.03;;;;;;;18.89;92.19;100392.19;4975977;28;20202;-74
2021/07/29 05:43:54;;;;;;;4.03;3.40;;;;;;;18.80;91.15;100398.88;4980841;28;20213;-76
2021/07/29 05:46:22;;;;;;;4.53;3.03;;;;;;;18.80;90.99;100400.69;4976294;28;20231;-76
2021/07/29 05:48:48;;;;;;;3.93;3.40;;;;;;;18.79;91.03;100399.84;4981987;28;20217;-75
2021/07/29 05:51:15;;;;;;;5.00;3.13;;;;;;;18.72;89.78;100407.31;4976114;28;20229;-76
2021/07/29 05:53:41;;;;;;;5.17;3.10;;;;;;;18.83;90.97;100411.09;4978953;28;20216;-76
2021/07/29 05:56:09;;;;;;;4.57;2.90;;;;;;;18.81;89.27;100403.25;4977953;28;20234;-76
2021/07/29 05:58:36;;;;;;;5.00;3.10;;;;;;;18.91;89.83;100403.53;4983212;28;20245;-76
2021/07/29 06:01:07;;;;;;;4.37;3.10;;;;;;;18.97;89.14;100408.41;4979774;28;20576;-76
2021/07/29 06:03:34;;;;;;;3.30;2.53;;;;;;;19.14;89.18;100401.16;4980465;28;20207;-76
2021/07/29 06:06:01;;;;;;;3.13;2.83;;;;;;;19.28;88.28;100407.25;4978321;28;20209;-76
2021/07/29 06:08:27;;;;;;;3.10;2.80;;;;;;;19.38;86.60;100401.34;4977327;28;20209;-76
2021/07/29 06:10:53;;;;;;;3.60;3.20;;;;;;;19.48;86.36;100407.72;4985315;28;20193;-73
2021/07/29 06:13:21;;;;;;;4.37;3.10;;;;;;;19.56;86.52;100399.28;4978348;28;20233;-74
2021/07/29 06:15:47;;;;;;;4.07;2.93;;;;;;;19.56;85.95;100405.44;4983637;28;20232;-75
2021/07/29 06:18:14;;;;;;;4.87;3.03;;;;;;;19.55;84.33;100401.06;4979804;28;20874;-73
2021/07/29 06:20:41;;;;;;;2.90;2.53;;;;;;;19.56;84.15;100401.91;4984875;28;20206;-75
2021/07/29 06:23:07;;;;;;;3.20;2.70;;;;;;;19.46;84.11;100405.19;4977259;28;20577;-75
2021/07/29 06:25:34;;;;;;;3.77;2.40;;;;;;;19.37;84.28;100411.09;4977681;28;20237;-76
2021/07/29 06:28:00;;;;;;;3.93;2.93;;;;;;;19.32;83.72;100409.72;4980870;28;20209;-74
2021/07/29 06:30:30;;;;;;;3.20;2.40;;;;;;;19.32;83.98;100409.72;4982803;28;20277;-75
2021/07/29 06:32:58;;;;;;;3.50;2.40;;;;;;;19.23;83.67;100412.00;4981631;28;20223;-75
2021/07/29 06:35:25;;;;;;;3.80;2.80;;;;;;;19.19;83.49;100417.56;4980298;28;20416;-76
2021/07/29 06:37:53;;;;;;;2.60;2.23;;;;;;;19.12;84.66;100411.88;4983863;28;20292;-75
2021/07/29 06:40:19;;;;;;;3.30;2.70;;;;;;;19.17;84.70;100408.91;4977032;28;20220;-75
2021/07/29 06:42:45;;;;;;;2.90;2.60;;;;;;;19.21;83.86;100421.00;4981358;28;20698;-76
2021/07/29 06:47:43;;;;;;;3.57;2.60;;;;;;;19.50;83.55;100419.03;5002050;28;20733;-74
2021/07/29 06:50:11;;;;;;;3.67;2.57;;;;;;;19.73;83.63;100421.94;4998586;28;20771;-74
2021/07/29 06:52:37;;;;;;;4.30;2.90;;;;;;;19.89;83.12;100422.63;5013127;28;20670;-74
2021/07/29 06:55:06;;;;;;;4.03;2.50;;;;;;;20.08;82.23;100416.06;5000972;28;20671;-74
2021/07/29 06:57:32;;;;;;;4.17;2.57;;;;;;;20.20;83.09;100415.22;4985985;28;20761;-74
2021/07/29 06:59:59;;;;;;;3.33;2.50;;;;;;;20.19;81.70;100417.03;4981547;28;20402;-74
2021/07/29 07:02:25;;;;;;;3.20;2.47;;;;;;;20.39;81.97;100420.06;4981898;28;20575;-74
2021/07/29 07:04:53;;;;;;;2.50;2.27;;;;;;;20.51;81.53;100415.69;4985027;28;20556;-74
2021/07/29 07:07:19;;;;;;;2.73;2.50;;;;;;;20.49;80.54;100414.97;4982527;28;20351;-73
2021/07/29 07:09:45;;;;;;;2.70;2.20;;;;;;;20.67;80.48;100410.16;4982873;28;20702;-73
2021/07/29 07:12:12;;;;;;;3.27;2.40;;;;;;;20.79;79.94;100410.16;4980631;28;20722;-73
2021/07/29 07:14:38;;;;;;;2.63;2.27;;;;;;;20.88;78.63;100407.78;4983005;28;20204;-73
2021/07/29 07:17:07;;;;;;;2.60;2.20;;;;;;;20.91;78.42;100405.75;4978088;28;20280;-73
2021/07/29 07:19:34;;;;;;;3.23;2.50;;;;;;;20.89;79.06;100415.63;4986150;28;20581;-74
2021/07/29 07:22:02;;;;;;;2.60;2.40;;;;;;;20.84;76.34;100415.09;4980153;28;20209;-73
2021/07/29 07:24:28;;;;;;;2.73;2.23;;;;;;;20.94;77.77;100410.00;4984090;28;20236;-73
2021/07/29 07:26:55;;;;;;;4.50;2.73;;;;;;;20.90;76.85;100406.72;4980702;28;20241;-73
2021/07/29 07:29:21;;;;;;;2.70;2.50;;;;;;;20.96;75.62;100403.59;4984354;28;20201;-73
2021/07/29 07:31:47;;;;;;;4.90;2.93;;;;;;;21.12;77.82;100402.50;4978080;28;20629;-73
2021/07/29 07:34:14;;;;;;;2.40;2.20;;;;;;;21.33;77.43;100400.03;4982810;28;20366;-74
2021/07/29 07:36:40;;;;;;;2.40;2.20;;;;;;;21.36;73.86;100407.78;4982769;28;20225;-73
2021/07/29 07:39:10;;;;;;;4.13;2.33;;;;;;;21.27;71.96;100403.19;4983480;28;20732;-73
2021/07/29 07:41:37;;;;;;;3.57;2.10;;;;;;;21.25;73.46;100399.75;4980876;28;20237;-74
2021/07/29 07:44:03;;;;;;;2.83;2.30;;;;;;;21.34;71.99;100401.75;4979296;28;20209;-73
2021/07/29 07:46:30;;;;;;;2.30;2.03;;;;;;;21.50;69.21;100417.38;4985294;28;20324;-74
2021/07/29 07:48:56;;;;;;;2.33;2.13;;;;;;;21.40;69.27;100411.03;4979946;28;20209;-73
2021/07/29 07:51:23;;;;;;;2.37;2.00;;;;;;;21.54;68.66;100414.38;4983478;28;20535;-74
2021/07/29 07:53:49;;;;;;;3.80;2.10;;;;;;;21.90;70.17;100395.78;4980286;28;20215;-73
2021/07/29 07:56:17;;;;;;;2.10;1.90;;;;;;;22.05;69.02;100404.34;4984733;28;20669;-74
2021/07/29 07:58:43;;;;;;;3.77;2.30;;;;;;;22.12;67.63;100406.38;4977434;28;20219;-73
2021/07/29 08:01:09;;;;;;;2.83;2.00;;;;;;;21.96;63.85;100407.72;4985394;28;20213;-74
2021/07/29 08:03:36;;;;;;;2.43;2.10;;;;;;;21.66;64.42;100415.25;4979865;28;20208;-74
2021/07/29 08:06:03;;;;;;;3.40;2.40;;;;;;;21.48;64.86;100409.53;4966400;28;20325;-73
2021/07/29 08:08:29;;;;;;;2.27;1.90;;;;;;;21.69;65.90;100411.53;4980288;28;20205;-71
2021/07/29 08:10:56;;;;;;;3.67;2.10;;;;;;;21.57;64.50;100404.50;4979791;28;20652;-71
2021/07/29 08:13:23;;;;;;;2.30;2.00;;;;;;;21.65;65.51;100407.41;4982710;28;20232;-72
2021/07/29 08:15:50;;;;;;;2.20;2.00;;;;;;;21.79;65.34;100403.69;4980519;28;20649;-72
2021/07/29 08:18:16;;;;;;;3.13;2.20;;;;;;;21.92;64.51;100399.16;4982739;28;20211;-71
2021/07/29 08:20:44;;;;;;;3.33;1.97;;;;;;;21.86;59.76;100410.22;4977881;28;20649;-72
2021/07/29 08:23:10;;;;;;;1.93;1.77;;;;;;;21.88;60.72;100410.94;4961510;28;20525;-71
2021/07/29 08:25:37;;;;;;;3.17;1.90;;;;;;;21.97;61.74;100407.59;4963391;28;20831;-72
2021/07/29 08:28:03;;;;;;;2.17;1.73;;;;;;;21.93;58.78;100420.28;4968586;28;20618;-71
2021/07/29 08:30:31;;;;;;;2.53;1.73;;;;;;;21.94;57.26;100400.72;4976222;28;20763;-72
2021/07/29 08:32:58;;;;;;;1.77;1.52;;;;;;;22.19;58.21;100395.31;4982520;28;20221;-72
2021/07/29 08:35:24;;;;;;;2.00;1.70;;;;;;;22.38;56.22;100390.25;4980275;28;20416;-72
2021/07/29 08:37:51;;;;;;;1.95;1.63;;;;;;;22.44;57.41;100384.47;4981490;28;20578;-71
2021/07/29 08:40:18;;;;;;;3.67;1.65;;;;;;;22.44;57.81;100386.25;4979921;28;20976;-71
2021/07/29 08:42:45;;;;;;;3.03;1.80;;;;;;;22.56;57.22;100393.25;4981998;28;20205;-72
2021/07/29 08:45:11;;;;;;;2.08;1.45;;;;;;;22.64;55.50;100388.16;4981277;28;20543;-71
2021/07/29 08:47:43;;;;;;;2.72;1.52;;;;;;;22.67;54.23;100384.41;4980051;28;20499;-72
2021/07/29 08:50:10;;;;;;;1.80;1.40;;;;;;;22.89;52.88;100394.16;4982491;28;20209;-72
2021/07/29 08:52:37;;;;;;;1.67;1.52;;;;;;;23.01;55.00;100393.16;4978095;28;20226;-72
2021/07/29 08:55:04;;;;;;;1.40;1.30;;;;;;;23.40;54.42;100395.31;4982589;28;20205;-71
2021/07/29 08:57:32;;;;;;;2.35;1.70;;;;;;;23.54;52.80;100402.97;4979577;28;20600;-72
2021/07/29 09:00:01;;;;;;;2.75;1.48;;;;;;;23.67;52.97;100396.63;4982132;28;20236;-72
2021/07/29 09:02:29;;;;;;;1.88;1.50;;;;;;;23.68;53.06;100393.00;4977862;28;20259;-72
2021/07/29 09:05:15;;;;;;;1.83;1.30;;;;;;;23.70;54.05;100394.53;4984327;28;20205;-71
2021/07/29 09:07:42;;;;;;;1.70;1.60;;;;;;;23.49;52.40;100405.19;4980628;28;20209;-72
2021/07/29 09:10:21;;;;;;;2.00;1.60;;;;;;;23.16;52.29;100395.53;4982231;28;20216;-72
2021/07/29 09:13:06;;;;;;;2.40;1.60;;;;;;;23.36;52.54;100404.50;4983057;28;20221;-72
2021/07/29 09:15:33;;;;;;;2.55;1.60;;;;;;;23.32;52.71;100392.44;4966596;28;20689;-72
2021/07/29 09:17:59;;;;;;;1.83;1.40;;;;;;;23.23;51.29;100405.53;4984967;28;20201;-72
2021/07/29 09:20:27;;;;;;;2.13;1.73;;;;;;;23.48;52.27;100399.97;4979896;28;20232;-72
2021/07/29 09:22:53;;;;;;;1.95;1.60;;;;;;;23.36;51.65;100396.53;4983520;28;20197;-72
2021/07/29 09:25:24;;;;;;;1.65;1.55;;;;;;;23.33;52.77;100389.66;4977761;28;20209;-72
2021/07/29 09:27:51;;;;;;;2.88;1.60;;;;;;;23.66;52.26;100394.91;4983844;28;20316;-72
2021/07/29 09:30:21;;;;;;;1.92;1.50;;;;;;;23.60;52.31;100377.66;4979366;28;20217;-72
2021/07/29 09:33:00;;;;;;;2.17;1.60;;;;;;;23.35;54.11;100392.19;4983027;28;20332;-72
2021/07/29 09:35:39;;;;;;;1.70;1.60;;;;;;;23.03;54.48;100382.38;4981121;28;20239;-72
2021/07/29 09:38:10;;;;;;;1.70;1.60;;;;;;;23.32;53.36;100387.97;4977184;28;20208;-73
2021/07/29 09:40:48;;;;;;;2.10;1.90;;;;;;;23.24;52.28;100382.47;4982102;28;20591;-73
2021/07/29 09:43:16;;;;;;;1.98;1.77;;;;;;;23.08;52.88;100388.22;4978627;28;20641;-73
2021/07/29 09:45:44;;;;;;;1.90;1.67;;;;;;;22.95;53.37;100380.34;4986231;28;20279;-73
2021/07/29 09:48:11;;;;;;;2.00;1.67;;;;;;;22.81;53.15;100375.31;4980583;28;20621;-73
2021/07/29 09:50:40;;;;;;;3.03;1.70;;;;;;;22.67;53.48;100379.09;4984482;28;20211;-73
2021/07/29 09:53:07;;;;;;;3.03;1.67;;;;;;;22.86;54.31;100365.16;4979503;28;20231;-73
2021/07/29 09:55:33;;;;;;;2.22;1.75;;;;;;;23.21;54.25;100377.38;4985675;28;20226;-73
2021/07/29 09:58:00;;;;;;;3.45;1.90;;;;;;;23.44;52.72;100370.97;4981561;28;20296;-73
2021/07/29 10:00:27;;;;;;;1.98;1.70;;;;;;;23.44;52.03;100378.13;4967854;28;20272;-73
2021/07/29 10:02:55;;;;;;;3.10;2.10;;;;;;;23.34;52.74;100379.84;4984280;28;20767;-73
2021/07/29 10:05:25;;;;;;;2.58;1.90;;;;;;;23.14;52.98;100370.91;4981365;28;20293;-73
2021/07/29 10:07:56;;;;;;;4.20;2.03;;;;;;;23.07;53.01;100381.19;4986426;28;20873;-73
2021/07/29 10:10:25;;;;;;;2.30;2.00;;;;;;;23.14;53.43;100366.41;4981970;28;20664;-73
2021/07/29 10:12:53;;;;;;;2.22;1.65;;;;;;;23.40;53.87;100366.91;4985881;28;20224;-73
2021/07/29 10:15:38;;;;;;;3.38;2.20;;;;;;;23.84;51.90;100371.28;4978658;28;20237;-73
2021/07/29 10:18:06;;;;;;;3.10;1.90;;;;;;;23.96;52.25;100370.22;4987044;28;20530;-73
2021/07/29 10:20:33;;;;;;;2.45;2.22;;;;;;;23.70;51.42;100357.28;4979657;28;20740;-73
2021/07/29 10:23:31;;;;;;;2.13;1.92;;;;;;;23.59;52.12;100357.38;4984922;28;20281;-73
2021/07/29 10:26:08;;;;;;;2.25;1.83;;;;;;;23.43;51.27;100371.13;4924836;29;20262;-73
2021/07/29 10:28:38;;;;;;;2.47;2.25;;;;;;;23.36;52.35;100356.63;4969273;28;20330;-73
2021/07/29 10:31:06;;;;;;;2.40;1.77;;;;;;;23.08;52.06;100358.09;4986327;28;20918;-73
2021/07/29 10:33:32;;;;;;;4.35;2.20;;;;;;;22.78;53.39;100357.81;4981132;28;20244;-73
2021/07/29 10:36:00;;;;;;;2.67;1.98;;;;;;;22.64;53.93;100355.47;4967384;28;20228;-73
2021/07/29 10:38:46;;;;;;;2.50;2.10;;;;;;;22.48;54.14;100351.38;4980049;28;20210;-73
2021/07/29 10:41:44;;;;;;;2.28;2.00;;;;;;;22.55;54.69;100350.88;4984749;28;20205;-73
2021/07/29 10:44:49;;;;;;;2.97;2.40;;;;;;;22.76;54.93;100348.28;4980624;28;21216;-74
2021/07/29 10:47:43;;;;;;;3.38;2.10;;;;;;;22.96;56.53;100349.31;4980867;28;20292;-73
2021/07/29 10:50:17;;;;;;;3.15;2.10;;;;;;;23.08;54.47;100355.44;4984821;28;20221;-73
2021/07/29 10:52:46;;;;;;;2.63;1.95;;;;;;;23.28;54.93;100343.16;4980958;28;20714;-73
2021/07/29 10:55:14;;;;;;;2.33;2.13;;;;;;;23.72;54.10;100335.88;4982421;28;20213;-73
2021/07/29 10:57:41;;;;;;;2.10;1.77;;;;;;;23.74;52.38;100344.56;4982840;28;20208;-73
2021/07/29 11:00:08;;;;;;;2.33;1.95;;;;;;;23.85;52.47;100347.19;4983789;28;20205;-73
2021/07/29 11:02:47;;;;;;;2.50;2.30;;;;;;;23.93;53.51;100338.53;4980524;28;20205;-73
2021/07/29 11:05:19;;;;;;;2.60;2.20;;;;;;;23.66;52.97;100353.22;4978620;28;20577;-73
2021/07/29 11:07:46;;;;;;;2.30;2.10;;;;;;;23.44;52.75;100348.84;4984464;28;20238;-73
2021/07/29 11:10:17;;;;;;;2.97;2.20;;;;;;;23.38;52.56;100352.88;4979955;28;20587;-73
2021/07/29 11:12:47;;;;;;;2.90;1.92;;;;;;;23.44;53.51;100347.03;4984335;28;20239;-73
2021/07/29 11:15:14;;;;;;;3.40;2.20;;;;;;;23.51;53.43;100344.69;4977594;28;20293;-73
2021/07/29 11:17:41;;;;;;;4.07;2.30;;;;;;;23.45;51.97;100355.88;4984686;28;20205;-73
2021/07/29 11:20:08;;;;;;;3.13;2.10;;;;;;;23.30;52.03;100357.16;4981794;28;20747;-73
2021/07/29 11:22:46;;;;;;;3.78;2.15;;;;;;;23.24;52.14;100358.53;4983026;28;20680;-74
2021/07/29 11:25:13;;;;;;;3.17;1.80;;;;;;;23.17;51.70;100355.53;4977033;28;20223;-73
2021/07/29 11:27:41;;;;;;;3.33;1.90;;;;;;;22.95;51.30;100348.44;4981725;28;20598;-73
2021/07/29 11:30:08;;;;;;;3.58;2.05;;;;;;;22.98;51.94;100350.84;4981384;28;20641;-73